createdAt,value
2023-03-13T00:00:31.244Z,8.70
2023-03-13T00:05:36.831Z,7.90
2023-03-13T00:10:42.169Z,8.47
2023-03-13T00:15:45.257Z,9.90
2023-03-13T00:20:48.939Z,9.10
2023-03-13T00:25:59.523Z,7.67
2023-03-13T00:31:04.102Z,10.73
2023-03-13T00:36:09.617Z,9.17
2023-03-13T00:41:15.449Z,10.27
2023-03-13T00:46:20.721Z,13.67
2023-03-13T00:51:27.053Z,11.10
2023-03-13T00:56:32.192Z,9.30
2023-03-13T01:01:36.656Z,12.20
2023-03-13T01:06:42.980Z,14.97
2023-03-13T01:11:48.146Z,11.43
2023-03-13T01:16:51.507Z,14.53
2023-03-13T01:21:54.678Z,8.13
2023-03-13T01:26:59.868Z,8.87
2023-03-13T01:32:03.032Z,14.43
2023-03-13T01:37:06.663Z,12.07
2023-03-13T01:42:11.662Z,12.17
2023-03-13T01:47:16.976Z,15.30
2023-03-13T01:52:25.614Z,10.77
2023-03-13T01:57:32.629Z,15.13
2023-03-13T02:02:36.607Z,8.20
2023-03-13T02:07:43.926Z,11.40
2023-03-13T02:12:48.575Z,13.47
2023-03-13T02:17:51.908Z,16.10
2023-03-13T02:23:02.331Z,12.77
2023-03-13T02:28:10.435Z,12.00
2023-03-13T02:33:15.338Z,7.97
2023-03-13T02:38:23.893Z,10.37
2023-03-13T02:43:31.947Z,13.67
2023-03-13T02:48:39.200Z,11.07
2023-03-13T02:53:44.573Z,16.40
2023-03-13T02:58:50.859Z,15.13
2023-03-13T03:03:54.424Z,11.23
2023-03-13T03:08:57.794Z,11.63
2023-03-13T03:14:02.626Z,14.00
2023-03-13T03:19:06.487Z,12.90
2023-03-13T03:24:10.263Z,13.37
2023-03-13T03:29:15.118Z,11.53
2023-03-13T03:34:18.389Z,14.83
2023-03-13T03:39:21.631Z,13.60
2023-03-13T03:44:26.366Z,12.20
2023-03-13T03:49:29.953Z,10.80
2023-03-13T03:54:33.110Z,13.97
2023-03-13T03:59:37.804Z,11.27
2023-03-13T04:04:41.054Z,12.33
2023-03-13T04:09:44.287Z,8.97
2023-03-13T04:14:48.961Z,10.53
2023-03-13T04:19:52.127Z,11.20
2023-03-13T04:24:55.435Z,14.13
2023-03-13T04:30:01.055Z,11.63
2023-03-13T04:35:04.409Z,13.03
2023-03-13T04:40:09.192Z,13.50
2023-03-13T04:45:14.439Z,12.37
2023-03-13T04:50:18.111Z,11.77
2023-03-13T04:55:21.152Z,14.53
2023-03-13T05:00:25.803Z,13.43
2023-03-13T05:05:29.035Z,12.20
2023-03-13T05:10:37.085Z,10.90
2023-03-13T05:15:42.060Z,12.20
2023-03-13T05:20:47.035Z,11.37
2023-03-13T05:25:50.753Z,10.70
2023-03-13T05:30:55.531Z,13.87
2023-03-13T05:35:59.802Z,14.60
2023-03-13T05:41:03.597Z,12.10
2023-03-13T05:46:08.488Z,9.90
2023-03-13T05:51:11.832Z,10.97
2023-03-13T05:56:15.460Z,12.57
2023-03-13T06:01:25.033Z,10.97
2023-03-13T06:06:28.969Z,10.33
2023-03-13T06:11:32.054Z,15.53
2023-03-13T06:16:36.940Z,10.87
2023-03-13T06:21:40.833Z,8.23
2023-03-13T06:26:49.758Z,8.40
2023-03-13T06:32:00.956Z,7.20
2023-03-13T06:37:05.608Z,10.00
2023-03-13T06:42:11.622Z,10.13
2023-03-13T06:47:19.341Z,12.07
2023-03-13T06:52:41.244Z,7.93
2023-03-13T06:57:50.687Z,10.50
2023-03-13T07:02:55.558Z,9.97
2023-03-13T07:08:00.547Z,10.33
2023-03-13T07:13:05.439Z,8.27
2023-03-13T07:18:10.204Z,8.23
2023-03-13T07:23:13.608Z,9.87
2023-03-13T07:28:16.764Z,8.57
2023-03-13T07:33:21.580Z,7.83
2023-03-13T07:38:26.250Z,4.03
2023-03-13T07:43:31.508Z,7.37
2023-03-13T07:48:38.044Z,6.20
2023-03-13T07:53:41.449Z,3.40
2023-03-13T07:58:45.522Z,2.50
2023-03-13T08:03:51.099Z,3.27
2023-03-13T08:08:54.688Z,3.93
2023-03-13T08:13:59.331Z,2.40
2023-03-13T08:19:06.319Z,3.03
2023-03-13T08:24:10.746Z,2.90
2023-03-13T08:29:15.593Z,2.83
2023-03-13T08:34:21.634Z,5.45
2023-03-13T08:39:25.176Z,1.83
2023-03-13T08:44:28.496Z,2.60
2023-03-13T08:49:33.110Z,1.97
2023-03-13T08:54:36.428Z,1.73
2023-03-13T08:59:39.580Z,8.10
2023-03-13T09:04:44.151Z,1.63
2023-03-13T09:09:47.491Z,4.50
2023-03-13T09:14:50.950Z,1.57
2023-03-13T09:20:00.704Z,2.10
2023-03-13T09:25:04.701Z,2.35
2023-03-13T09:30:08.999Z,2.20
2023-03-13T09:35:13.594Z,2.08
2023-03-13T09:40:28.461Z,1.80
2023-03-13T09:45:35.020Z,2.20
2023-03-13T09:50:46.543Z,1.42
2023-03-13T09:55:49.910Z,3.33
2023-03-13T10:00:57.892Z,1.00
2023-03-13T10:06:07.478Z,0.75
2023-03-13T10:11:13.956Z,0.40
2023-03-13T10:16:23.678Z,1.15
2023-03-13T10:21:35.806Z,0.93
2023-03-13T10:26:39.746Z,1.20
2023-03-13T10:31:46.702Z,0.57
2023-03-13T10:36:56.847Z,0.40
2023-03-13T10:42:11.666Z,1.20
2023-03-13T10:47:16.869Z,1.83
2023-03-13T10:52:44.202Z,3.70
2023-03-13T10:57:56.769Z,1.45
2023-03-13T11:03:00.219Z,2.17
2023-03-13T11:08:21.315Z,1.40
2023-03-13T11:13:38.021Z,0.68
2023-03-13T11:18:47.981Z,0.80
2023-03-13T11:24:01.941Z,0.82
2023-03-13T11:29:17.201Z,0.80
2023-03-13T11:34:27.895Z,1.40
2023-03-13T11:39:52.219Z,2.17
2023-03-13T11:45:06.966Z,2.45
2023-03-13T11:50:35.504Z,0.98
2023-03-13T11:55:52.901Z,2.72
2023-03-13T12:01:01.781Z,1.02
2023-03-13T12:06:15.882Z,1.02
2023-03-13T12:11:29.066Z,1.30
2023-03-13T12:16:41.160Z,0.60
2023-03-13T12:21:48.915Z,0.57
2023-03-13T12:26:57.956Z,1.85
2023-03-13T12:32:06.304Z,0.57
2023-03-13T12:37:19.486Z,1.63
2023-03-13T12:42:38.741Z,1.10
2023-03-13T12:48:05.954Z,3.65
2023-03-13T12:53:31.564Z,1.58
2023-03-13T12:58:55.684Z,0.70
2023-03-13T13:04:03.314Z,2.78
2023-03-13T13:09:23.677Z,1.10
2023-03-13T13:15:04.167Z,0.70
2023-03-13T13:20:40.150Z,1.85
2023-03-13T13:25:44.623Z,0.98
2023-03-13T13:30:49.598Z,2.80
2023-03-13T13:36:29.403Z,3.55
2023-03-13T13:41:40.994Z,1.63
2023-03-13T13:46:47.647Z,2.90
2023-03-13T13:52:38.569Z,2.63
2023-03-13T13:57:43.810Z,1.40
2023-03-13T14:02:52.689Z,1.92
2023-03-13T14:08:04.880Z,1.95
2023-03-13T14:13:14.843Z,0.80
2023-03-13T14:18:24.846Z,1.08
2023-03-13T14:23:34.925Z,2.22
2023-03-13T14:28:40.992Z,3.38
2023-03-13T14:33:45.778Z,1.67
2023-03-13T14:38:57.689Z,3.25
2023-03-13T14:44:06.801Z,2.50
2023-03-13T14:49:18.014Z,1.85
2023-03-13T14:54:30.918Z,3.08
2023-03-13T14:59:34.432Z,1.58
2023-03-13T15:04:53.456Z,1.92
2023-03-13T15:09:58.350Z,1.00
2023-03-13T15:15:01.869Z,3.55
2023-03-13T15:20:09.878Z,0.90
2023-03-13T15:25:17.802Z,2.47
2023-03-13T15:30:23.728Z,1.98
2023-03-13T15:35:31.172Z,1.17
2023-03-13T15:40:34.724Z,1.50
2023-03-13T15:45:41.576Z,2.28
2023-03-13T15:50:46.654Z,2.10
2023-03-13T15:55:50.505Z,1.67
2023-03-13T16:00:54.080Z,1.85
2023-03-13T16:06:00.361Z,2.55
2023-03-13T16:11:04.198Z,3.85
2023-03-13T16:16:18.396Z,2.58
2023-03-13T16:21:25.055Z,2.88
2023-03-13T16:26:30.425Z,3.20
2023-03-13T16:31:35.067Z,2.45
2023-03-13T16:36:39.754Z,1.77
2023-03-13T16:41:43.349Z,1.85
2023-03-13T16:47:02.807Z,3.17
2023-03-13T16:52:14.592Z,3.03
2023-03-13T16:57:19.614Z,2.13
2023-03-13T17:02:23.071Z,1.42
2023-03-13T17:07:29.591Z,3.20
2023-03-13T17:12:33.027Z,1.58
2023-03-13T17:17:36.335Z,3.05
2023-03-13T17:22:41.903Z,2.05
2023-03-13T17:27:49.330Z,2.40
2023-03-13T17:32:55.352Z,2.83
2023-03-13T17:38:00.141Z,4.85
2023-03-13T17:43:05.229Z,1.95
2023-03-13T17:48:17.022Z,6.10
2023-03-13T17:53:22.123Z,4.75
2023-03-13T17:58:25.227Z,5.38
2023-03-13T18:03:29.712Z,2.75
2023-03-13T18:08:37.286Z,2.22
2023-03-13T18:13:41.741Z,4.40
2023-03-13T18:18:44.970Z,2.22
2023-03-13T18:23:50.692Z,1.20
2023-03-13T18:28:59.418Z,1.00
2023-03-13T18:34:07.478Z,1.38
2023-03-13T18:39:17.587Z,1.67
2023-03-13T18:44:21.267Z,4.05
2023-03-13T18:49:28.815Z,0.47
2023-03-13T18:54:34.149Z,0.70
2023-03-13T18:59:37.461Z,0.73
2023-03-13T19:04:41.037Z,1.00
2023-03-13T19:09:47.493Z,0.93
2023-03-13T19:14:52.715Z,1.23
2023-03-13T19:19:57.540Z,4.65
2023-03-13T19:25:03.147Z,1.58
2023-03-13T19:30:18.268Z,1.00
2023-03-13T19:35:22.344Z,2.63
2023-03-13T19:40:29.532Z,1.10
2023-03-13T19:45:33.026Z,0.88
2023-03-13T19:50:37.064Z,2.15
2023-03-13T19:55:45.414Z,1.85
2023-03-13T20:00:49.694Z,1.60
2023-03-13T20:05:53.013Z,3.75
2023-03-13T20:10:58.859Z,2.75
2023-03-13T20:16:02.888Z,1.92
2023-03-13T20:21:06.406Z,1.55
2023-03-13T20:26:13.033Z,0.98
2023-03-13T20:31:18.808Z,1.35
2023-03-13T20:36:23.853Z,1.75
2023-03-13T20:41:31.346Z,1.05
2023-03-13T20:46:35.563Z,3.25
2023-03-13T20:51:39.291Z,3.25
2023-03-13T20:56:44.769Z,1.65
2023-03-13T21:01:48.035Z,1.55
2023-03-13T21:06:51.423Z,1.92
2023-03-13T21:11:56.134Z,0.82
2023-03-13T21:16:59.716Z,1.42
2023-03-13T21:22:07.036Z,1.08
2023-03-13T21:27:11.791Z,0.88
2023-03-13T21:32:16.808Z,1.27
2023-03-13T21:37:20.245Z,0.95
2023-03-13T21:42:25.097Z,5.57
2023-03-13T21:47:31.792Z,2.10
2023-03-13T21:52:40.669Z,1.00
2023-03-13T21:57:45.826Z,2.47
2023-03-13T22:02:50.484Z,1.98
2023-03-13T22:07:55.648Z,2.88
2023-03-13T22:13:00.317Z,2.45
2023-03-13T22:18:03.616Z,1.38
2023-03-13T22:23:07.278Z,0.98
2023-03-13T22:28:13.001Z,1.42
2023-03-13T22:33:17.747Z,0.77
2023-03-13T22:38:21.556Z,1.60
2023-03-13T22:43:26.428Z,1.98
2023-03-13T22:48:29.903Z,1.48
2023-03-13T22:53:35.760Z,1.23
2023-03-13T22:58:41.392Z,2.53
2023-03-13T23:03:45.114Z,1.40
2023-03-13T23:08:49.128Z,1.40
2023-03-13T23:13:53.805Z,1.20
2023-03-13T23:18:57.003Z,0.93
2023-03-13T23:24:00.308Z,2.00
2023-03-13T23:29:04.897Z,0.70
2023-03-13T23:34:08.194Z,1.55
2023-03-13T23:39:11.374Z,3.08
2023-03-13T23:44:16.155Z,1.25
2023-03-13T23:49:19.310Z,0.95
2023-03-13T23:54:23.213Z,1.48
2023-03-13T23:59:28.024Z,0.98
